createdAt,value
2019-01-25T00:00:43.114Z,5.30
2019-01-25T00:03:50.240Z,5.20
2019-01-25T00:06:50.971Z,5.23
2019-01-25T00:09:44.557Z,5.00
2019-01-25T00:12:45.381Z,4.90
2019-01-25T00:15:39.756Z,5.30
2019-01-25T00:18:42.122Z,5.40
2019-01-25T00:21:39.242Z,5.17
2019-01-25T00:24:39.602Z,5.30
2019-01-25T00:27:33.121Z,5.53
2019-01-25T00:30:34.316Z,4.87
2019-01-25T00:33:28.837Z,5.03
2019-01-25T00:36:30.683Z,4.97
2019-01-25T00:39:25.395Z,5.80
2019-01-25T00:42:26.919Z,4.50
2019-01-25T00:45:21.407Z,4.83
2019-01-25T00:48:23.044Z,4.60
2019-01-25T00:51:17.357Z,5.17
2019-01-25T00:54:17.942Z,5.20
2019-01-25T00:57:11.726Z,5.23
2019-01-25T01:00:17.452Z,5.03
2019-01-25T01:03:12.032Z,4.63
2019-01-25T01:06:13.267Z,5.20
2019-01-25T01:09:06.943Z,5.20
2019-01-25T01:12:08.397Z,5.03
2019-01-25T01:15:03.040Z,4.80
2019-01-25T01:18:03.757Z,4.90
2019-01-25T01:20:58.711Z,5.20
2019-01-25T01:24:00.513Z,5.10
2019-01-25T01:26:53.679Z,5.07
2019-01-25T01:29:54.952Z,5.30
2019-01-25T01:32:48.894Z,5.43
2019-01-25T01:35:50.130Z,5.00
2019-01-25T01:38:44.493Z,4.60
2019-01-25T01:41:45.481Z,4.97
2019-01-25T01:44:39.857Z,5.40
2019-01-25T01:47:41.451Z,5.33
2019-01-25T01:50:34.917Z,5.17
2019-01-25T01:53:36.552Z,4.70
2019-01-25T01:56:29.983Z,5.37
2019-01-25T01:59:31.860Z,4.93
2019-01-25T02:02:25.901Z,5.27
2019-01-25T02:05:26.366Z,5.43
2019-01-25T02:08:26.888Z,5.37
2019-01-25T02:11:20.681Z,4.47
2019-01-25T02:14:14.633Z,5.13
2019-01-25T02:17:15.565Z,5.57
2019-01-25T02:20:25.188Z,5.50
2019-01-25T02:23:26.599Z,4.80
2019-01-25T02:26:20.838Z,5.37
2019-01-25T02:29:22.377Z,5.67
2019-01-25T02:32:15.898Z,5.50
2019-01-25T02:35:17.001Z,5.27
2019-01-25T02:38:10.559Z,5.60
2019-01-25T02:41:11.353Z,5.37
2019-01-25T02:44:05.597Z,5.57
2019-01-25T02:47:07.054Z,5.37
2019-01-25T02:50:01.664Z,5.87
2019-01-25T02:53:03.950Z,5.70
2019-01-25T02:55:58.134Z,4.93
2019-01-25T02:58:58.979Z,5.13
2019-01-25T03:01:53.306Z,5.33
2019-01-25T03:04:54.803Z,5.40
2019-01-25T03:07:50.976Z,5.27
2019-01-25T03:10:51.564Z,5.70
2019-01-25T03:13:45.032Z,5.40
2019-01-25T03:16:45.573Z,5.30
2019-01-25T03:19:39.919Z,5.20
2019-01-25T03:22:40.590Z,5.10
2019-01-25T03:25:34.935Z,5.30
2019-01-25T03:28:36.712Z,4.87
2019-01-25T03:31:30.881Z,4.63
2019-01-25T03:34:31.442Z,5.13
2019-01-25T03:37:25.010Z,5.00
2019-01-25T03:40:27.365Z,5.23
2019-01-25T03:43:20.813Z,5.30
2019-01-25T03:46:21.134Z,5.73
2019-01-25T03:49:14.681Z,5.30
2019-01-25T03:52:15.738Z,4.93
2019-01-25T03:55:11.062Z,5.20
2019-01-25T03:58:13.984Z,5.00
2019-01-25T04:01:08.757Z,5.37
2019-01-25T04:04:12.188Z,5.27
2019-01-25T04:07:05.601Z,5.20
2019-01-25T04:10:07.027Z,5.50
2019-01-25T04:13:14.136Z,5.17
2019-01-25T04:16:15.228Z,5.43
2019-01-25T04:19:09.561Z,5.33
2019-01-25T04:22:12.402Z,5.10
2019-01-25T04:25:05.997Z,5.37
2019-01-25T04:28:07.680Z,5.30
2019-01-25T04:31:02.134Z,5.63
2019-01-25T04:34:03.356Z,5.50
2019-01-25T04:36:57.688Z,5.17
2019-01-25T04:39:58.447Z,5.43
2019-01-25T04:42:52.448Z,5.60
2019-01-25T04:45:53.286Z,5.33
2019-01-25T04:48:48.291Z,5.37
2019-01-25T04:51:49.596Z,5.13
2019-01-25T04:54:45.667Z,6.43
2019-01-25T04:57:46.800Z,5.67
2019-01-25T05:00:41.914Z,5.87
2019-01-25T05:03:43.167Z,5.83
2019-01-25T05:06:36.857Z,5.30
2019-01-25T05:09:38.217Z,5.53
2019-01-25T05:12:32.416Z,5.80
2019-01-25T05:15:34.062Z,6.27
2019-01-25T05:18:30.248Z,5.53
2019-01-25T05:21:31.842Z,5.60
2019-01-25T05:24:25.920Z,5.37
2019-01-25T05:27:27.452Z,5.37
2019-01-25T05:30:21.854Z,5.17
2019-01-25T05:33:22.767Z,5.53
2019-01-25T05:36:17.061Z,5.67
2019-01-25T05:39:18.066Z,5.77
2019-01-25T05:42:12.590Z,5.90
2019-01-25T05:45:18.199Z,5.60
2019-01-25T05:48:11.652Z,5.53
2019-01-25T05:51:12.687Z,5.97
2019-01-25T05:54:07.188Z,5.57
2019-01-25T05:57:08.644Z,5.93
2019-01-25T06:00:04.608Z,5.70
2019-01-25T06:03:08.653Z,5.40
2019-01-25T06:06:04.575Z,5.47
2019-01-25T06:09:05.871Z,5.20
2019-01-25T06:12:00.123Z,5.30
2019-01-25T06:15:02.692Z,5.17
2019-01-25T06:18:04.893Z,5.30
2019-01-25T06:20:59.164Z,5.43
2019-01-25T06:23:54.321Z,4.87
2019-01-25T06:26:56.415Z,4.90
2019-01-25T06:29:56.797Z,4.87
2019-01-25T06:32:50.711Z,4.77
2019-01-25T06:35:46.320Z,4.40
2019-01-25T06:38:47.140Z,4.20
2019-01-25T06:41:44.143Z,4.40
2019-01-25T06:44:43.034Z,4.90
2019-01-25T06:47:44.040Z,4.47
2019-01-25T06:50:37.529Z,4.43
2019-01-25T06:53:32.805Z,4.30
2019-01-25T06:56:33.491Z,4.30
2019-01-25T06:59:29.768Z,3.80
2019-01-25T07:02:32.384Z,4.00
2019-01-25T07:05:32.796Z,4.00
2019-01-25T07:08:27.333Z,3.80
2019-01-25T07:11:22.566Z,3.50
2019-01-25T07:14:23.908Z,3.83
2019-01-25T07:17:19.218Z,3.57
2019-01-25T07:20:28.230Z,3.47
2019-01-25T07:23:29.120Z,3.60
2019-01-25T07:26:30.004Z,3.30
2019-01-25T07:29:25.275Z,3.47
2019-01-25T07:32:27.342Z,3.17
2019-01-25T07:35:34.196Z,3.30
2019-01-25T07:38:36.801Z,2.93
2019-01-25T07:41:30.242Z,2.80
2019-01-25T07:44:31.677Z,3.10
2019-01-25T07:47:27.932Z,3.20
2019-01-25T07:50:29.073Z,3.40
2019-01-25T07:53:28.265Z,3.20
2019-01-25T07:56:29.299Z,2.77
2019-01-25T07:59:22.906Z,3.37
2019-01-25T08:02:23.586Z,3.17
2019-01-25T08:05:17.827Z,2.40
2019-01-25T08:08:19.873Z,2.80
2019-01-25T08:11:14.213Z,2.63
2019-01-25T08:14:15.005Z,3.00
2019-01-25T08:17:08.768Z,2.67
2019-01-25T08:20:11.751Z,2.80
2019-01-25T08:23:19.090Z,2.77
2019-01-25T08:26:20.235Z,2.93
2019-01-25T08:29:13.712Z,2.57
2019-01-25T08:32:14.708Z,2.50
2019-01-25T08:35:08.365Z,2.70
2019-01-25T08:38:08.898Z,2.73
2019-01-25T08:41:03.238Z,2.67
2019-01-25T08:44:07.610Z,2.83
2019-01-25T08:47:01.158Z,2.97
2019-01-25T08:50:02.521Z,2.70
2019-01-25T08:52:56.533Z,2.90
2019-01-25T08:55:57.651Z,2.87
2019-01-25T08:58:52.472Z,2.63
2019-01-25T09:01:54.025Z,3.00
2019-01-25T09:04:47.834Z,2.73
2019-01-25T09:07:51.181Z,2.70
2019-01-25T09:10:45.990Z,2.67
2019-01-25T09:13:46.942Z,3.10
2019-01-25T09:16:41.271Z,2.73
2019-01-25T09:19:42.872Z,3.20
2019-01-25T09:22:37.132Z,3.00
2019-01-25T09:25:38.884Z,2.50
2019-01-25T09:28:32.858Z,3.23
2019-01-25T09:31:35.264Z,2.73
2019-01-25T09:34:30.055Z,2.90
2019-01-25T09:37:31.450Z,3.20
2019-01-25T09:40:32.144Z,2.83
2019-01-25T09:43:33.039Z,2.67
2019-01-25T09:46:30.532Z,3.00
2019-01-25T09:49:32.638Z,3.00
2019-01-25T09:52:26.106Z,2.80
2019-01-25T09:55:32.312Z,2.63
2019-01-25T09:58:25.718Z,2.73
2019-01-25T10:01:27.423Z,3.07
2019-01-25T10:04:21.715Z,2.70
2019-01-25T10:07:23.154Z,2.97
2019-01-25T10:10:17.762Z,2.80
2019-01-25T10:13:19.373Z,3.27
2019-01-25T10:16:13.707Z,3.30
2019-01-25T10:19:15.341Z,2.97
2019-01-25T10:22:10.096Z,2.87
2019-01-25T10:25:12.723Z,3.10
2019-01-25T10:28:14.186Z,3.10
2019-01-25T10:31:08.660Z,3.37
2019-01-25T10:34:02.897Z,3.70
2019-01-25T10:37:03.686Z,4.50
2019-01-25T10:40:04.243Z,4.40
2019-01-25T10:42:57.643Z,4.30
2019-01-25T10:45:51.667Z,4.33
2019-01-25T10:48:58.858Z,4.50
2019-01-25T10:52:05.479Z,4.37
2019-01-25T10:55:06.299Z,5.23
2019-01-25T10:58:00.732Z,5.23
2019-01-25T11:01:02.469Z,4.90
2019-01-25T11:03:56.859Z,5.10
2019-01-25T11:06:59.156Z,5.00
2019-01-25T11:09:52.598Z,5.00
2019-01-25T11:13:00.743Z,4.80
2019-01-25T11:15:50.229Z,4.80
2019-01-25T11:18:52.045Z,4.23
2019-01-25T11:21:46.029Z,4.30
2019-01-25T11:24:47.454Z,4.23
2019-01-25T11:27:40.896Z,4.30
2019-01-25T11:30:42.267Z,3.50
2019-01-25T11:33:36.796Z,3.83
2019-01-25T11:36:38.347Z,3.57
2019-01-25T11:39:32.635Z,3.80
2019-01-25T11:42:33.988Z,4.00
2019-01-25T11:45:31.405Z,3.23
2019-01-25T11:48:32.970Z,3.83
2019-01-25T11:51:26.789Z,3.60
2019-01-25T11:54:28.672Z,3.57
2019-01-25T11:57:22.590Z,3.63
2019-01-25T12:00:27.602Z,3.67
2019-01-25T12:03:21.756Z,3.40
2019-01-25T12:06:23.486Z,3.30
2019-01-25T12:09:17.802Z,3.37
2019-01-25T12:12:19.427Z,3.43
2019-01-25T12:15:15.147Z,3.20
2019-01-25T12:18:16.601Z,3.60
2019-01-25T12:21:10.103Z,3.10
2019-01-25T12:24:11.397Z,3.20
2019-01-25T12:27:05.578Z,3.50
2019-01-25T12:30:06.873Z,3.13
2019-01-25T12:33:13.965Z,3.10
2019-01-25T12:36:14.804Z,3.10
2019-01-25T12:39:08.480Z,3.10
2019-01-25T12:42:09.468Z,3.03
2019-01-25T12:45:03.484Z,2.63
2019-01-25T12:48:05.369Z,3.03
2019-01-25T12:51:00.912Z,2.70
2019-01-25T12:54:02.272Z,2.97
2019-01-25T12:56:56.002Z,3.00
2019-01-25T12:59:57.762Z,2.70
2019-01-25T13:02:51.580Z,2.50
2019-01-25T13:05:53.462Z,2.67
2019-01-25T13:08:47.871Z,2.73
2019-01-25T13:11:49.419Z,2.60
2019-01-25T13:14:43.888Z,2.63
2019-01-25T13:17:44.881Z,2.70
2019-01-25T13:20:39.677Z,2.40
2019-01-25T13:23:40.783Z,2.73
2019-01-25T13:26:34.540Z,2.37
2019-01-25T13:29:59.137Z,2.27
2019-01-25T13:33:05.859Z,2.83
2019-01-25T13:36:07.389Z,2.40
2019-01-25T13:39:00.448Z,2.30
2019-01-25T13:42:01.802Z,2.60
2019-01-25T13:44:56.096Z,2.27
2019-01-25T13:47:57.605Z,2.10
2019-01-25T13:50:52.147Z,2.10
2019-01-25T13:53:52.962Z,2.37
2019-01-25T13:56:46.767Z,2.30
2019-01-25T13:59:47.488Z,2.30
2019-01-25T14:02:41.666Z,2.40
2019-01-25T14:05:42.612Z,2.40
2019-01-25T14:08:36.088Z,2.10
2019-01-25T14:11:37.424Z,2.23
2019-01-25T14:14:31.166Z,2.00
2019-01-25T14:17:33.290Z,2.10
2019-01-25T14:20:31.060Z,2.30
2019-01-25T14:23:32.326Z,2.43
2019-01-25T14:26:26.383Z,2.10
2019-01-25T14:29:29.331Z,2.37
2019-01-25T14:32:23.291Z,2.30
2019-01-25T14:35:24.274Z,2.27
2019-01-25T14:38:31.690Z,2.03
2019-01-25T14:41:33.272Z,2.30
2019-01-25T14:44:27.710Z,2.20
2019-01-25T14:47:32.393Z,2.30
2019-01-25T14:50:30.382Z,2.50
2019-01-25T14:53:31.453Z,2.53
2019-01-25T14:56:25.513Z,2.03
2019-01-25T14:59:26.942Z,2.33
2019-01-25T15:02:20.646Z,2.13
2019-01-25T15:05:23.213Z,2.23
2019-01-25T15:08:17.264Z,2.20
2019-01-25T15:11:19.564Z,2.10
2019-01-25T15:14:13.628Z,2.30
2019-01-25T15:17:19.633Z,2.53
2019-01-25T15:20:16.981Z,2.23
2019-01-25T15:23:17.741Z,2.33
2019-01-25T15:26:13.093Z,2.10
2019-01-25T15:29:14.481Z,2.50
2019-01-25T15:32:08.649Z,2.10
2019-01-25T15:35:09.774Z,2.20
2019-01-25T15:38:03.813Z,2.40
2019-01-25T15:41:05.305Z,2.47
2019-01-25T15:43:59.119Z,2.20
2019-01-25T15:46:59.658Z,2.17
2019-01-25T15:49:53.594Z,2.10
2019-01-25T15:55:50.779Z,2.10
2019-01-25T15:58:52.107Z,1.97
2019-01-25T16:01:46.627Z,2.00
2019-01-25T16:04:47.899Z,2.00
2019-01-25T16:07:42.157Z,2.07
2019-01-25T16:10:52.434Z,1.77
2019-01-25T16:13:46.600Z,1.83
2019-01-25T16:16:47.610Z,2.10
2019-01-25T16:19:48.695Z,1.90
2019-01-25T16:22:42.867Z,2.10
2019-01-25T16:25:36.497Z,1.73
2019-01-25T16:28:37.507Z,1.90
2019-01-25T16:31:31.618Z,1.97
2019-01-25T16:34:32.579Z,1.93
2019-01-25T16:37:39.927Z,1.93
2019-01-25T16:40:40.859Z,1.70
2019-01-25T16:43:48.007Z,1.97
2019-01-25T16:46:49.119Z,1.67
2019-01-25T16:49:43.297Z,1.90
2019-01-25T16:52:45.140Z,1.57
2019-01-25T16:55:40.456Z,1.67
2019-01-25T16:58:41.983Z,1.60
2019-01-25T17:01:36.193Z,1.60
2019-01-25T17:04:37.254Z,1.57
2019-01-25T17:07:30.727Z,1.63
2019-01-25T17:10:32.084Z,1.60
2019-01-25T17:13:26.696Z,1.57
2019-01-25T17:16:28.300Z,1.47
2019-01-25T17:19:21.780Z,1.60
2019-01-25T17:22:23.193Z,1.50
2019-01-25T17:25:18.320Z,1.50
2019-01-25T17:28:19.170Z,1.60
2019-01-25T17:31:13.379Z,1.20
2019-01-25T17:34:14.094Z,1.40
2019-01-25T17:37:08.109Z,1.30
2019-01-25T17:40:08.573Z,1.50
2019-01-25T17:43:02.491Z,1.27
2019-01-25T17:46:04.059Z,1.13
2019-01-25T17:48:58.447Z,1.40
2019-01-25T17:52:00.092Z,1.30
2019-01-25T17:54:54.692Z,1.30
2019-01-25T17:57:56.136Z,1.00
2019-01-25T18:00:51.146Z,1.30
2019-01-25T18:03:52.473Z,1.07
2019-01-25T18:06:45.971Z,1.17
2019-01-25T18:09:47.645Z,1.40
2019-01-25T18:12:41.532Z,1.20
2019-01-25T18:15:42.341Z,1.20
2019-01-25T18:18:36.365Z,1.13
2019-01-25T18:21:37.010Z,1.20
2019-01-25T18:24:31.718Z,1.20
2019-01-25T18:27:33.339Z,1.30
2019-01-25T18:30:29.120Z,1.33
2019-01-25T18:33:29.717Z,1.33
2019-01-25T18:36:24.017Z,1.20
2019-01-25T18:39:24.459Z,1.40
2019-01-25T18:42:18.201Z,1.20
2019-01-25T18:45:19.178Z,1.30
2019-01-25T18:48:19.894Z,1.20
2019-01-25T18:51:13.638Z,1.20
2019-01-25T18:54:07.626Z,1.40
2019-01-25T18:57:08.323Z,1.10
2019-01-25T19:00:15.756Z,1.20
2019-01-25T19:03:18.097Z,1.47
2019-01-25T19:06:13.219Z,1.20
2019-01-25T19:09:14.336Z,1.57
2019-01-25T19:12:09.460Z,1.10
2019-01-25T19:15:13.742Z,1.23
2019-01-25T19:18:07.918Z,1.30
2019-01-25T19:21:09.533Z,1.30
2019-01-25T19:24:03.868Z,1.40
2019-01-25T19:27:05.279Z,1.30
2019-01-25T19:29:59.628Z,1.00
2019-01-25T19:33:00.642Z,1.40
2019-01-25T19:35:54.959Z,1.40
2019-01-25T19:38:56.602Z,1.30
2019-01-25T19:41:50.118Z,1.20
2019-01-25T19:44:51.916Z,1.13
2019-01-25T19:47:48.488Z,1.27
2019-01-25T19:50:49.808Z,1.40
2019-01-25T19:53:43.246Z,1.37
2019-01-25T19:56:43.639Z,1.47
2019-01-25T19:59:38.214Z,1.43
2019-01-25T20:02:38.975Z,1.33
2019-01-25T20:05:34.440Z,1.30
2019-01-25T20:08:34.913Z,1.10
2019-01-25T20:11:28.409Z,1.20
2019-01-25T20:14:32.580Z,1.30
2019-01-25T20:17:28.112Z,1.40
2019-01-25T20:20:29.962Z,1.37
2019-01-25T20:23:23.672Z,1.13
2019-01-25T20:26:24.684Z,1.60
2019-01-25T20:29:18.941Z,1.50
2019-01-25T20:32:19.823Z,1.43
2019-01-25T20:35:38.333Z,1.23
2019-01-25T20:38:42.126Z,1.20
2019-01-25T20:41:45.591Z,1.00
2019-01-25T20:44:52.923Z,1.20
2019-01-25T20:47:47.352Z,1.50
2019-01-25T20:50:48.947Z,1.30
2019-01-25T20:53:56.050Z,1.33
2019-01-25T20:56:57.155Z,1.40
2019-01-25T20:59:53.088Z,1.20
2019-01-25T21:02:54.158Z,1.47
2019-01-25T21:05:48.367Z,1.50
2019-01-25T21:08:50.122Z,1.40
2019-01-25T21:11:44.751Z,1.33
2019-01-25T21:14:46.277Z,1.17
2019-01-25T21:17:40.863Z,1.40
2019-01-25T21:20:45.965Z,1.30
2019-01-25T21:23:40.019Z,1.40
2019-01-25T21:26:41.404Z,1.30
2019-01-25T21:29:35.871Z,1.00
2019-01-25T21:32:36.862Z,1.43
2019-01-25T21:35:43.426Z,1.40
2019-01-25T21:38:50.567Z,1.30
2019-01-25T21:41:44.253Z,1.10
2019-01-25T21:44:45.529Z,1.30
2019-01-25T21:47:39.423Z,1.30
2019-01-25T21:50:41.840Z,1.10
2019-01-25T21:53:45.532Z,1.03
2019-01-25T21:56:46.276Z,1.40
2019-01-25T21:59:40.702Z,1.13
2019-01-25T22:02:42.403Z,1.27
2019-01-25T22:05:36.498Z,1.03
2019-01-25T22:08:37.414Z,1.47
2019-01-25T22:11:31.570Z,1.37
2019-01-25T22:14:33.072Z,1.30
2019-01-25T22:17:27.322Z,1.30
2019-01-25T22:20:31.980Z,1.43
2019-01-25T22:23:26.210Z,0.97
2019-01-25T22:26:27.143Z,1.40
2019-01-25T22:29:21.292Z,1.30
2019-01-25T22:32:22.816Z,1.30
2019-01-25T22:35:16.477Z,1.07
2019-01-25T22:38:18.760Z,1.17
2019-01-25T22:41:12.437Z,1.60
2019-01-25T22:44:13.303Z,0.93
2019-01-25T22:47:07.181Z,1.17
2019-01-25T22:50:08.630Z,1.20
2019-01-25T22:53:02.712Z,1.17
2019-01-25T22:56:04.049Z,1.30
2019-01-25T22:59:11.134Z,0.90
2019-01-25T23:02:12.273Z,1.20
2019-01-25T23:05:17.421Z,1.33
2019-01-25T23:08:18.424Z,1.10
2019-01-25T23:11:12.271Z,1.00
2019-01-25T23:14:12.724Z,0.80
2019-01-25T23:17:06.388Z,1.23
2019-01-25T23:20:07.492Z,1.30
2019-01-25T23:23:01.233Z,1.10
2019-01-25T23:26:02.818Z,1.23
2019-01-25T23:28:56.670Z,1.47
2019-01-25T23:31:57.448Z,1.20
2019-01-25T23:34:51.182Z,1.07
2019-01-25T23:37:52.609Z,1.10
2019-01-25T23:40:46.912Z,1.13
2019-01-25T23:43:48.567Z,1.40
2019-01-25T23:46:42.975Z,1.13
2019-01-25T23:49:44.599Z,1.30
2019-01-25T23:52:38.851Z,1.07
2019-01-25T23:55:39.953Z,1.07
2019-01-25T23:58:33.531Z,1.30
